Time;durP1;ratioP1;P1;durP2;ratioP2;P2;SDS_P1;SDS_P2;PMS_P1;PMS_P2;Temp;Humidity;BMP_temperature;BMP_pressure;BME280_temperature;BME280_humidity;BME280_pressure;Samples;Min_cycle;Max_cycle;Signal;HPM_P1;HPM_P2
2022/06/30 00:00:42;;;;;;;8.55;5.80;;;20.00;99.90;;;;;;5092797;28;20040;-64
2022/06/30 00:03:08;;;;;;;6.22;5.53;;;20.00;99.90;;;;;;5091277;28;20040;-63
2022/06/30 00:05:34;;;;;;;5.47;4.97;;;20.00;99.90;;;;;;5089486;28;20144;-64
2022/06/30 00:07:59;;;;;;;6.20;5.70;;;20.00;99.90;;;;;;5088396;28;20521;-64
2022/06/30 00:10:25;;;;;;;6.57;5.40;;;19.90;99.90;;;;;;5091909;28;20383;-63
2022/06/30 00:12:51;;;;;;;7.25;4.93;;;19.90;99.90;;;;;;5091646;28;20071;-64
2022/06/30 00:15:17;;;;;;;5.63;5.03;;;19.90;99.90;;;;;;5089163;28;20044;-64
2022/06/30 00:17:43;;;;;;;7.93;5.22;;;19.90;99.90;;;;;;5091192;28;20112;-64
2022/06/30 00:20:09;;;;;;;5.72;4.90;;;19.80;99.90;;;;;;5089707;28;20390;-63
2022/06/30 00:22:34;;;;;;;5.47;4.88;;;19.80;99.90;;;;;;5088716;28;20482;-64
2022/06/30 00:25:00;;;;;;;5.53;4.95;;;19.70;99.90;;;;;;5090817;28;20052;-64
2022/06/30 00:27:26;;;;;;;4.72;4.25;;;19.70;99.90;;;;;;5086524;28;20047;-64
2022/06/30 00:29:52;;;;;;;4.95;4.43;;;19.70;99.90;;;;;;5090694;28;20064;-63
2022/06/30 00:32:17;;;;;;;5.05;3.92;;;19.60;99.90;;;;;;5083840;28;20044;-64
2022/06/30 00:34:43;;;;;;;4.65;4.22;;;19.60;99.90;;;;;;5089495;28;20032;-63
2022/06/30 00:37:09;;;;;;;4.32;3.60;;;19.60;99.90;;;;;;5079982;28;20167;-64
2022/06/30 00:39:34;;;;;;;5.70;3.58;;;19.60;99.90;;;;;;5083019;28;20044;-63
2022/06/30 00:42:01;;;;;;;4.18;3.78;;;19.60;99.90;;;;;;5122904;27;20052;-64
2022/06/30 00:44:27;;;;;;;9.75;3.83;;;19.50;99.90;;;;;;5089321;28;20118;-64
2022/06/30 00:46:53;;;;;;;5.28;3.67;;;19.50;99.90;;;;;;5073735;28;20123;-64
2022/06/30 00:49:22;;;;;;;6.93;3.95;;;19.50;99.90;;;;;;5090956;28;20043;-64
2022/06/30 00:51:47;;;;;;;4.80;3.40;;;19.40;99.90;;;;;;5090211;28;20039;-64
2022/06/30 00:54:13;;;;;;;4.53;3.40;;;19.40;99.90;;;;;;5090163;28;20036;-64
2022/06/30 00:56:47;;;;;;;3.70;3.40;;;19.40;99.90;;;;;;5091773;28;20181;-64
2022/06/30 00:59:16;;;;;;;4.60;3.33;;;19.40;99.90;;;;;;5090762;28;20380;-64
2022/06/30 01:01:43;;;;;;;3.63;3.08;;;19.40;99.90;;;;;;5088963;28;20044;-64
2022/06/30 01:04:09;;;;;;;3.90;3.50;;;19.30;99.90;;;;;;5088829;28;20051;-64
2022/06/30 01:06:37;;;;;;;3.28;2.97;;;19.40;99.90;;;;;;5088305;28;20039;-64
2022/06/30 01:09:03;;;;;;;3.50;3.20;;;19.40;99.90;;;;;;5085146;28;20102;-64
2022/06/30 01:14:15;;;;;;;3.75;3.22;;;19.30;99.90;;;;;;5089559;28;20055;-64
2022/06/30 01:16:41;;;;;;;5.18;3.90;;;19.30;99.90;;;;;;5088880;28;20036;-64
2022/06/30 01:19:07;;;;;;;4.50;3.17;;;19.30;99.90;;;;;;5090769;28;20119;-63
2022/06/30 01:21:33;;;;;;;4.28;3.38;;;19.20;99.90;;;;;;5089330;28;20059;-64
2022/06/30 01:23:58;;;;;;;4.15;3.60;;;19.20;99.90;;;;;;5088924;28;20484;-63
2022/06/30 01:26:25;;;;;;;3.80;3.50;;;19.20;99.90;;;;;;5088478;28;20067;-65
2022/06/30 01:28:51;;;;;;;3.83;3.53;;;19.20;99.90;;;;;;5089094;28;20036;-64
2022/06/30 01:31:17;;;;;;;5.35;3.50;;;19.20;99.90;;;;;;5086223;28;20499;-64
2022/06/30 01:33:43;;;;;;;5.35;3.40;;;19.10;99.90;;;;;;5085438;28;20498;-64
2022/06/30 01:36:09;;;;;;;4.47;4.00;;;19.00;99.90;;;;;;5088147;28;20449;-64
2022/06/30 01:38:35;;;;;;;3.95;3.60;;;19.00;99.90;;;;;;5088027;28;20131;-63
2022/06/30 01:41:00;;;;;;;4.03;3.10;;;19.00;99.90;;;;;;5089176;28;20074;-64
2022/06/30 01:43:26;;;;;;;5.80;3.78;;;19.00;99.90;;;;;;5081080;28;20059;-64
2022/06/30 01:45:52;;;;;;;3.60;3.30;;;19.00;99.90;;;;;;5086523;28;20056;-64
2022/06/30 01:48:17;;;;;;;5.82;3.85;;;18.90;99.90;;;;;;5087849;28;20454;-64
2022/06/30 01:50:43;;;;;;;6.55;3.75;;;18.90;99.90;;;;;;5121159;27;20032;-64
2022/06/30 01:53:09;;;;;;;4.68;3.78;;;18.90;99.90;;;;;;5088649;28;20071;-64
2022/06/30 01:55:34;;;;;;;5.68;3.55;;;18.90;99.90;;;;;;5086330;28;20434;-64
2022/06/30 01:58:00;;;;;;;4.30;3.90;;;18.90;99.90;;;;;;5088344;28;20048;-64
2022/06/30 02:00:27;;;;;;;4.43;3.70;;;18.80;99.90;;;;;;5085417;28;20519;-63
2022/06/30 02:02:57;;;;;;;4.03;3.60;;;18.80;99.90;;;;;;5088803;28;20410;-64
2022/06/30 02:05:23;;;;;;;4.38;3.95;;;18.80;99.90;;;;;;5088108;28;20044;-64
2022/06/30 02:07:50;;;;;;;6.13;4.80;;;18.80;99.90;;;;;;5088614;28;20149;-64
2022/06/30 02:10:19;;;;;;;5.63;3.63;;;18.70;99.90;;;;;;5089146;28;20123;-64
2022/06/30 02:12:46;;;;;;;5.88;4.07;;;18.70;99.90;;;;;;5091582;28;20406;-64
2022/06/30 02:15:15;;;;;;;4.32;3.85;;;18.70;99.90;;;;;;5085392;28;20139;-64
2022/06/30 02:17:42;;;;;;;5.35;4.50;;;18.70;99.90;;;;;;5121780;27;20048;-63
2022/06/30 02:20:09;;;;;;;5.10;3.80;;;18.60;99.90;;;;;;5087694;28;20059;-64
2022/06/30 02:22:35;;;;;;;5.13;4.22;;;18.60;99.90;;;;;;5089520;28;20044;-63
2022/06/30 02:25:02;;;;;;;5.75;4.10;;;18.50;99.90;;;;;;5087806;28;20054;-64
2022/06/30 02:27:27;;;;;;;4.47;3.85;;;18.50;99.90;;;;;;5084702;28;20040;-63
2022/06/30 02:29:53;;;;;;;4.38;3.80;;;18.50;99.90;;;;;;5087275;28;20046;-64
2022/06/30 02:32:20;;;;;;;4.20;3.80;;;18.50;99.90;;;;;;5088125;28;20040;-64
2022/06/30 02:34:46;;;;;;;4.13;3.83;;;18.50;99.90;;;;;;5086091;28;20044;-64
2022/06/30 02:37:11;;;;;;;5.07;4.03;;;18.40;99.90;;;;;;5085916;28;20109;-64
2022/06/30 02:39:37;;;;;;;5.53;4.32;;;18.40;99.90;;;;;;5085907;28;20078;-64
2022/06/30 02:42:03;;;;;;;4.53;4.13;;;18.40;99.90;;;;;;5084686;28;20101;-63
2022/06/30 02:44:29;;;;;;;4.28;3.88;;;18.30;99.90;;;;;;5088767;28;20034;-64
2022/06/30 02:46:55;;;;;;;4.43;3.90;;;18.30;99.90;;;;;;5087738;28;20036;-63
2022/06/30 02:49:21;;;;;;;5.00;4.47;;;18.30;99.90;;;;;;5087652;28;20032;-63
2022/06/30 02:51:47;;;;;;;4.25;3.92;;;18.30;99.90;;;;;;5090013;28;20055;-64
2022/06/30 02:54:14;;;;;;;4.75;3.92;;;18.30;99.90;;;;;;5088477;28;20121;-64
2022/06/30 02:56:40;;;;;;;4.57;4.15;;;18.20;99.90;;;;;;5081598;28;20453;-64
2022/06/30 02:59:05;;;;;;;6.85;4.40;;;18.20;99.90;;;;;;5086700;28;20036;-64
2022/06/30 03:01:32;;;;;;;6.82;4.10;;;18.20;99.90;;;;;;5080690;28;20547;-64
2022/06/30 03:04:00;;;;;;;5.40;4.05;;;18.20;99.90;;;;;;5088711;28;20052;-63
2022/06/30 03:06:26;;;;;;;4.05;3.65;;;18.10;99.90;;;;;;5086012;28;20074;-64
2022/06/30 03:08:52;;;;;;;5.25;4.00;;;18.10;99.90;;;;;;5085666;28;20055;-64
2022/06/30 03:11:18;;;;;;;4.60;4.20;;;18.10;99.90;;;;;;5086194;28;20036;-64
2022/06/30 03:13:44;;;;;;;8.70;3.70;;;18.10;99.90;;;;;;5071067;28;20052;-64
2022/06/30 03:16:11;;;;;;;3.97;3.58;;;18.10;99.90;;;;;;5081783;28;20039;-64
2022/06/30 03:18:36;;;;;;;4.32;3.80;;;18.00;99.90;;;;;;5077712;28;20144;-64
2022/06/30 03:21:02;;;;;;;4.95;3.90;;;18.00;99.90;;;;;;5083443;28;20048;-64
2022/06/30 03:23:28;;;;;;;6.28;3.95;;;18.00;99.90;;;;;;5089709;28;20056;-64
2022/06/30 03:25:53;;;;;;;4.13;3.72;;;18.00;99.90;;;;;;5088870;28;20418;-63
2022/06/30 03:28:19;;;;;;;4.60;4.20;;;18.00;99.90;;;;;;5086724;28;22121;-64
2022/06/30 03:30:47;;;;;;;4.38;3.97;;;18.00;99.90;;;;;;5085783;28;20024;-63
2022/06/30 03:33:14;;;;;;;5.88;3.95;;;18.00;99.90;;;;;;5088256;28;20040;-64
2022/06/30 03:35:39;;;;;;;4.20;3.80;;;18.00;99.90;;;;;;5088083;28;20046;-64
2022/06/30 03:38:06;;;;;;;4.68;4.28;;;18.00;99.90;;;;;;5089205;28;20040;-63
2022/06/30 03:40:32;;;;;;;3.70;3.40;;;18.00;99.90;;;;;;5087982;28;20040;-64
2022/06/30 03:42:58;;;;;;;4.07;3.65;;;17.90;99.90;;;;;;5090225;28;20050;-63
2022/06/30 03:45:24;;;;;;;5.00;3.95;;;17.90;99.90;;;;;;5092256;28;20040;-64
2022/06/30 03:47:49;;;;;;;4.43;3.80;;;17.90;99.90;;;;;;5087968;28;20492;-64
2022/06/30 03:50:15;;;;;;;5.70;4.00;;;17.90;99.90;;;;;;5091274;28;20052;-64
2022/06/30 03:52:40;;;;;;;5.80;3.97;;;17.90;99.90;;;;;;5089114;28;20448;-64
2022/06/30 03:55:06;;;;;;;3.88;3.47;;;17.90;99.90;;;;;;5088941;28;20036;-64
2022/06/30 03:57:32;;;;;;;6.43;4.10;;;18.00;99.90;;;;;;5088845;28;20070;-64
2022/06/30 03:59:58;;;;;;;4.72;3.72;;;18.00;99.90;;;;;;5123844;27;20044;-64
2022/06/30 04:02:23;;;;;;;4.15;3.75;;;18.00;99.90;;;;;;5121362;27;20044;-64
2022/06/30 04:04:49;;;;;;;4.10;3.45;;;18.00;99.90;;;;;;5090096;28;20051;-64
2022/06/30 04:07:15;;;;;;;4.40;4.00;;;18.00;99.90;;;;;;5089181;28;20115;-64
2022/06/30 04:09:40;;;;;;;4.45;3.63;;;18.10;99.90;;;;;;5119270;27;20414;-64
2022/06/30 04:12:06;;;;;;;4.20;3.80;;;18.10;99.90;;;;;;5092075;28;20548;-64
2022/06/30 04:14:31;;;;;;;4.10;3.70;;;18.10;99.90;;;;;;5088593;28;20031;-64
2022/06/30 04:16:57;;;;;;;4.65;3.72;;;18.10;99.90;;;;;;5088543;28;20048;-64
2022/06/30 04:19:23;;;;;;;6.32;3.92;;;18.10;99.90;;;;;;5089801;28;20403;-64
2022/06/30 04:21:49;;;;;;;5.00;3.45;;;18.20;99.90;;;;;;5091129;28;20040;-64
2022/06/30 04:24:15;;;;;;;5.50;4.03;;;18.20;99.90;;;;;;5090407;28;20063;-64
2022/06/30 04:26:40;;;;;;;4.70;4.30;;;18.20;99.90;;;;;;5090528;28;20036;-65
2022/06/30 04:29:06;;;;;;;5.80;5.18;;;18.20;99.90;;;;;;5092013;28;20486;-63
2022/06/30 04:34:16;;;;;;;4.82;4.28;;;18.30;99.90;;;;;;5087901;28;20043;-63
2022/06/30 04:36:41;;;;;;;6.78;4.55;;;18.30;99.90;;;;;;5084291;28;20414;-64
2022/06/30 04:39:07;;;;;;;5.88;4.38;;;18.40;99.90;;;;;;5083606;28;20044;-64
2022/06/30 04:41:33;;;;;;;5.13;4.07;;;18.40;99.90;;;;;;5087465;28;20050;-64
2022/06/30 04:44:00;;;;;;;4.38;3.97;;;18.50;99.90;;;;;;5091025;28;21207;-64
2022/06/30 04:46:26;;;;;;;5.13;4.25;;;18.50;99.90;;;;;;5089171;28;20469;-64
2022/06/30 04:48:53;;;;;;;5.75;4.63;;;18.60;99.90;;;;;;5090923;28;20040;-64
2022/06/30 04:51:19;;;;;;;4.75;4.30;;;18.60;99.90;;;;;;5086356;28;20142;-63
2022/06/30 04:53:45;;;;;;;4.90;4.40;;;18.70;99.90;;;;;;5087644;28;20047;-63
2022/06/30 04:56:11;;;;;;;4.85;4.35;;;18.70;99.90;;;;;;5090767;28;20043;-64
2022/06/30 04:58:37;;;;;;;8.23;4.65;;;18.80;99.90;;;;;;5070277;28;20048;-64
2022/06/30 05:01:04;;;;;;;5.53;4.30;;;18.90;99.90;;;;;;5087982;28;20048;-63
2022/06/30 05:03:30;;;;;;;5.57;4.68;;;19.00;99.90;;;;;;5084917;28;20043;-63
2022/06/30 05:05:56;;;;;;;4.63;4.13;;;19.10;99.90;;;;;;5080647;28;20036;-63
2022/06/30 05:08:22;;;;;;;6.18;4.70;;;19.10;99.90;;;;;;5117401;27;20043;-64
2022/06/30 05:10:48;;;;;;;7.30;4.75;;;19.20;99.90;;;;;;5089557;28;20044;-64
2022/06/30 05:13:15;;;;;;;5.05;4.55;;;19.30;99.90;;;;;;5085321;28;20031;-64
2022/06/30 05:15:41;;;;;;;5.43;4.93;;;19.40;99.90;;;;;;5091247;28;20040;-64
2022/06/30 05:18:07;;;;;;;6.45;4.55;;;19.50;99.90;;;;;;5089144;28;20043;-64
2022/06/30 05:20:32;;;;;;;4.80;4.40;;;19.60;99.90;;;;;;5088511;28;20055;-64
2022/06/30 05:22:58;;;;;;;5.95;4.57;;;19.70;99.90;;;;;;5089997;28;20513;-64
2022/06/30 05:28:08;;;;;;;6.25;4.82;;;19.90;99.90;;;;;;5090249;28;20048;-64
2022/06/30 05:30:34;;;;;;;9.13;5.40;;;20.10;99.90;;;;;;5088939;28;20509;-64
2022/06/30 05:33:00;;;;;;;5.63;5.13;;;20.10;99.90;;;;;;5089509;28;20100;-64
2022/06/30 05:35:26;;;;;;;8.55;5.18;;;20.20;99.90;;;;;;5089058;28;20052;-64
2022/06/30 05:37:52;;;;;;;5.80;4.75;;;20.30;99.90;;;;;;5070534;28;20258;-64
2022/06/30 05:40:18;;;;;;;7.18;5.38;;;20.40;99.90;;;;;;5089680;28;20044;-64
2022/06/30 05:42:43;;;;;;;11.40;5.95;;;20.50;99.90;;;;;;5088768;28;20044;-65
2022/06/30 05:45:10;;;;;;;8.07;5.35;;;20.60;99.90;;;;;;5090009;28;20044;-64
2022/06/30 05:47:46;;;;;;;8.27;4.68;;;20.60;99.90;;;;;;5085536;28;20036;-64
2022/06/30 05:50:13;;;;;;;5.72;5.13;;;20.80;99.90;;;;;;5070139;28;20547;-64
2022/06/30 05:52:39;;;;;;;6.22;5.03;;;20.90;99.90;;;;;;5089964;28;20398;-64
2022/06/30 05:55:06;;;;;;;5.85;5.25;;;20.90;99.90;;;;;;5090674;28;20419;-65
2022/06/30 05:57:31;;;;;;;6.57;5.38;;;21.00;99.90;;;;;;5090463;28;20059;-64
2022/06/30 05:59:57;;;;;;;8.65;4.78;;;21.10;99.90;;;;;;5089015;28;20048;-64
2022/06/30 06:02:22;;;;;;;6.78;5.15;;;21.30;99.90;;;;;;5089007;28;20039;-64
2022/06/30 06:04:48;;;;;;;5.57;5.07;;;21.40;99.90;;;;;;5090185;28;20555;-64
2022/06/30 06:07:14;;;;;;;6.18;5.07;;;21.60;99.90;;;;;;5088919;28;20052;-64
2022/06/30 06:09:39;;;;;;;7.13;5.63;;;21.70;99.90;;;;;;5089920;28;20043;-65
2022/06/30 06:12:05;;;;;;;6.53;5.55;;;21.80;99.90;;;;;;5090415;28;20024;-64
2022/06/30 06:14:31;;;;;;;7.63;5.40;;;21.90;99.90;;;;;;5121478;27;20043;-64
2022/06/30 06:16:56;;;;;;;6.55;5.55;;;21.90;99.90;;;;;;5089875;28;20039;-64
2022/06/30 06:19:22;;;;;;;7.10;5.68;;;22.00;99.90;;;;;;5090097;28;20042;-64
2022/06/30 06:21:48;;;;;;;7.65;5.22;;;22.10;99.90;;;;;;5090084;28;20039;-64
2022/06/30 06:24:15;;;;;;;6.15;5.50;;;22.20;99.90;;;;;;5089632;28;20091;-64
2022/06/30 06:26:41;;;;;;;7.95;5.78;;;22.30;99.90;;;;;;5090253;28;20097;-64
2022/06/30 06:29:07;;;;;;;6.88;5.50;;;22.30;99.90;;;;;;5088507;28;20052;-64
2022/06/30 06:31:38;;;;;;;7.93;5.80;;;22.40;99.90;;;;;;5088993;28;20055;-64
2022/06/30 06:34:04;;;;;;;7.88;6.22;;;22.40;99.90;;;;;;5089807;28;20035;-64
2022/06/30 06:36:30;;;;;;;6.38;5.78;;;22.50;99.90;;;;;;5088844;28;20395;-65
2022/06/30 06:38:57;;;;;;;6.97;5.57;;;22.60;99.90;;;;;;5122737;28;20054;-64
2022/06/30 06:41:22;;;;;;;6.80;6.15;;;22.70;99.90;;;;;;5090190;28;20067;-64
2022/06/30 06:43:50;;;;;;;7.75;6.43;;;22.70;99.90;;;;;;5119226;28;20479;-64
2022/06/30 06:46:16;;;;;;;7.30;6.22;;;22.80;99.90;;;;;;5089444;28;20040;-64
2022/06/30 06:48:42;;;;;;;10.05;6.35;;;22.90;99.90;;;;;;5089597;28;20395;-64
2022/06/30 06:51:08;;;;;;;6.30;5.70;;;23.00;99.90;;;;;;5089517;28;20048;-63
2022/06/30 06:53:34;;;;;;;6.90;5.93;;;23.10;99.90;;;;;;5089405;28;20036;-63
2022/06/30 06:56:00;;;;;;;6.97;6.22;;;23.20;99.90;;;;;;5088413;28;20043;-64
2022/06/30 06:58:25;;;;;;;7.40;6.70;;;23.30;99.90;;;;;;5092294;28;20036;-64
2022/06/30 07:00:53;;;;;;;7.38;6.50;;;23.40;99.90;;;;;;5093617;28;20032;-65
2022/06/30 07:03:19;;;;;;;7.20;6.38;;;23.40;99.90;;;;;;5093386;28;20108;-64
2022/06/30 07:05:44;;;;;;;7.50;6.57;;;23.60;99.90;;;;;;5093044;28;20131;-64
2022/06/30 07:08:10;;;;;;;7.97;7.18;;;23.60;99.90;;;;;;5093159;28;20050;-65
2022/06/30 07:10:36;;;;;;;9.30;7.13;;;23.70;99.90;;;;;;5093199;28;20550;-64
2022/06/30 07:13:01;;;;;;;12.00;6.93;;;23.70;99.90;;;;;;5093304;28;20032;-63
2022/06/30 07:15:27;;;;;;;7.40;6.70;;;23.80;99.90;;;;;;5093285;28;20039;-64
2022/06/30 07:17:52;;;;;;;8.10;7.28;;;23.80;99.90;;;;;;5093270;28;20046;-64
2022/06/30 07:20:19;;;;;;;7.47;6.60;;;23.90;99.90;;;;;;5092999;28;20380;-64
2022/06/30 07:22:44;;;;;;;9.30;8.02;;;24.00;99.90;;;;;;5092797;28;20043;-64
2022/06/30 07:25:10;;;;;;;8.98;8.18;;;24.10;99.90;;;;;;5091664;28;20044;-64
2022/06/30 07:27:36;;;;;;;9.27;8.30;;;24.20;99.90;;;;;;5091726;28;20115;-64
2022/06/30 07:30:02;;;;;;;8.10;7.30;;;24.10;99.90;;;;;;5093414;28;20035;-65
2022/06/30 07:32:30;;;;;;;8.52;7.80;;;24.10;99.90;;;;;;5093330;28;20084;-65
2022/06/30 07:34:55;;;;;;;9.40;8.50;;;24.20;99.90;;;;;;5093196;28;20105;-64
2022/06/30 07:37:21;;;;;;;9.57;7.63;;;24.30;99.90;;;;;;5125630;27;20036;-64
2022/06/30 07:39:47;;;;;;;11.30;8.95;;;24.40;99.90;;;;;;5092999;28;20395;-63
2022/06/30 07:42:12;;;;;;;9.95;8.48;;;24.60;99.90;;;;;;5091469;28;20044;-64
2022/06/30 07:44:38;;;;;;;8.43;7.63;;;24.70;99.90;;;;;;5092911;28;20072;-64
2022/06/30 07:47:04;;;;;;;9.40;8.23;;;24.80;99.90;;;;;;5091549;28;20092;-64
2022/06/30 07:49:30;;;;;;;8.65;7.70;;;24.90;99.90;;;;;;5092715;28;20035;-64
2022/06/30 07:51:56;;;;;;;8.45;7.63;;;25.10;99.90;;;;;;5091400;28;20036;-64
2022/06/30 07:54:21;;;;;;;10.85;8.10;;;25.20;99.90;;;;;;5092954;28;20047;-64
2022/06/30 07:56:47;;;;;;;9.40;8.40;;;25.30;99.90;;;;;;5092410;28;20039;-64
2022/06/30 07:59:13;;;;;;;8.40;7.53;;;25.40;99.90;;;;;;5092586;28;20123;-64
2022/06/30 08:01:39;;;;;;;12.57;8.77;;;25.60;99.90;;;;;;5092462;28;20039;-64
2022/06/30 08:04:04;;;;;;;10.05;8.93;;;25.60;99.90;;;;;;5091440;28;20542;-64
2022/06/30 08:06:30;;;;;;;9.70;8.40;;;25.60;99.90;;;;;;5092230;28;20158;-65
2022/06/30 08:08:56;;;;;;;9.38;8.45;;;25.60;99.90;;;;;;5091866;28;20036;-64
2022/06/30 08:11:22;;;;;;;9.23;8.32;;;25.70;99.90;;;;;;5092642;28;20145;-65
2022/06/30 08:13:48;;;;;;;9.38;8.40;;;25.70;99.90;;;;;;5092216;28;20502;-63
2022/06/30 08:16:15;;;;;;;12.50;9.70;;;25.90;99.90;;;;;;5092306;28;20068;-63
2022/06/30 08:18:42;;;;;;;10.13;8.60;;;26.10;99.90;;;;;;5092046;28;20047;-64
2022/06/30 08:21:09;;;;;;;9.48;8.60;;;26.10;99.90;;;;;;5092092;28;20035;-64
2022/06/30 08:23:35;;;;;;;9.52;8.52;;;26.10;99.90;;;;;;5090801;28;20044;-65
2022/06/30 08:26:01;;;;;;;10.13;8.75;;;26.30;99.90;;;;;;5092086;28;20059;-65
2022/06/30 08:28:27;;;;;;;10.35;9.35;;;26.30;99.90;;;;;;5090998;28;20149;-64
2022/06/30 08:30:53;;;;;;;10.18;9.02;;;26.40;99.90;;;;;;5091910;28;20093;-65
2022/06/30 08:33:19;;;;;;;11.15;9.30;;;26.50;99.90;;;;;;5091991;28;20471;-65
2022/06/30 08:35:44;;;;;;;12.20;10.27;;;26.60;99.90;;;;;;5088882;28;20066;-65
2022/06/30 08:38:10;;;;;;;14.07;10.13;;;26.70;99.90;;;;;;5124538;27;20075;-65
2022/06/30 08:43:27;;;;;;;11.45;8.95;;;26.80;99.90;;;;;;5091760;28;20052;-65
2022/06/30 08:45:54;;;;;;;10.70;9.60;;;26.80;99.90;;;;;;5091193;28;20491;-64
2022/06/30 08:48:20;;;;;;;10.35;9.38;;;26.90;99.90;;;;;;5091733;28;21278;-65
2022/06/30 08:50:47;;;;;;;10.68;9.57;;;27.00;99.90;;;;;;5091308;28;20027;-64
2022/06/30 08:53:16;;;;;;;11.77;10.55;;;27.20;99.90;;;;;;5089993;28;20486;-64
2022/06/30 08:55:42;;;;;;;11.05;9.77;;;27.30;99.90;;;;;;5091262;28;20032;-64
2022/06/30 08:58:09;;;;;;;11.18;10.07;;;27.40;99.90;;;;;;5091099;28;20542;-65
2022/06/30 09:00:36;;;;;;;10.75;9.07;;;27.40;99.90;;;;;;5091064;28;20371;-65
2022/06/30 09:03:04;;;;;;;9.50;8.60;;;27.50;99.90;;;;;;5091212;28;20032;-64
2022/06/30 09:05:30;;;;;;;10.88;9.77;;;27.60;99.90;;;;;;5091154;28;20469;-64
2022/06/30 09:07:56;;;;;;;11.52;10.40;;;27.70;99.90;;;;;;5089696;28;20132;-65
2022/06/30 09:10:24;;;;;;;9.93;8.95;;;27.70;99.90;;;;;;5090817;28;20123;-65
2022/06/30 09:13:01;;;;;;;10.57;8.98;;;27.80;99.90;;;;;;5091175;28;20036;-65
2022/06/30 09:15:31;;;;;;;9.02;8.07;;;27.70;99.90;;;;;;5089988;28;20036;-64
2022/06/30 09:18:01;;;;;;;11.38;10.07;;;27.70;99.90;;;;;;5091036;28;20429;-65
2022/06/30 09:20:38;;;;;;;11.10;10.02;;;28.00;99.90;;;;;;5089926;28;20479;-65
2022/06/30 09:23:24;;;;;;;10.82;9.45;;;28.10;99.90;;;;;;5089601;28;20040;-65
2022/06/30 09:25:52;;;;;;;10.57;9.57;;;27.90;99.90;;;;;;5091111;28;20375;-64
2022/06/30 09:28:43;;;;;;;10.68;9.57;;;27.90;99.90;;;;;;5090949;28;20036;-64
2022/06/30 09:31:11;;;;;;;9.95;8.88;;;27.90;99.90;;;;;;5090860;28;20093;-65
2022/06/30 09:33:39;;;;;;;9.82;8.82;;;27.90;99.90;;;;;;5123714;27;20036;-64
2022/06/30 09:36:21;;;;;;;11.57;10.25;;;28.00;99.90;;;;;;5089357;28;20042;-64
2022/06/30 09:39:07;;;;;;;12.20;11.00;;;28.20;99.90;;;;;;5091006;28;20111;-65
2022/06/30 09:41:35;;;;;;;12.55;11.27;;;28.20;99.90;;;;;;5090777;28;20078;-64
2022/06/30 09:44:05;;;;;;;11.13;9.90;;;28.20;99.90;;;;;;5090751;28;20044;-65
2022/06/30 09:46:32;;;;;;;10.52;9.52;;;28.30;99.90;;;;;;5090520;28;20505;-64
2022/06/30 09:48:57;;;;;;;10.18;9.25;;;28.40;99.90;;;;;;5090472;28;20048;-65
2022/06/30 09:51:23;;;;;;;12.73;9.45;;;28.50;99.90;;;;;;5090332;28;20032;-64
2022/06/30 09:54:11;;;;;;;11.20;10.10;;;28.50;99.90;;;;;;5090467;28;20035;-64
2022/06/30 09:56:38;;;;;;;11.25;10.15;;;28.50;99.90;;;;;;5090262;28;20032;-64
2022/06/30 09:59:07;;;;;;;10.95;9.85;;;28.50;99.90;;;;;;5089108;28;20088;-64
2022/06/30 10:01:55;;;;;;;10.88;9.82;;;28.70;99.90;;;;;;5090309;28;20089;-64
2022/06/30 10:04:21;;;;;;;10.40;9.35;;;28.90;99.90;;;;;;5090270;28;20127;-64
2022/06/30 10:06:47;;;;;;;11.02;9.93;;;29.10;99.90;;;;;;5088872;28;20115;-65
2022/06/30 10:09:20;;;;;;;11.27;8.82;;;29.40;99.90;;;;;;5090268;28;20127;-65
2022/06/30 10:11:46;;;;;;;13.02;8.40;;;29.30;99.10;;;;;;5090328;28;20063;-64
2022/06/30 10:14:15;;;;;;;9.63;8.73;;;29.10;99.20;;;;;;5090116;28;20067;-64
2022/06/30 10:16:42;;;;;;;11.40;8.25;;;28.80;98.70;;;;;;5089987;28;20495;-65
2022/06/30 10:19:10;;;;;;;8.45;7.57;;;28.80;98.10;;;;;;5088796;28;20052;-64
2022/06/30 10:21:41;;;;;;;7.85;7.15;;;28.70;98.30;;;;;;5088706;28;20044;-65
2022/06/30 10:24:08;;;;;;;;;;;28.60;98.90;;;;;;5088880;28;20063;-65
2022/06/30 10:29:19;;;;;;;10.10;9.10;;;28.60;98.00;;;;;;5089508;28;20097;-65
2022/06/30 10:32:08;;;;;;;8.07;6.70;;;28.70;97.90;;;;;;5088907;28;20501;-64
2022/06/30 10:34:38;;;;;;;9.77;6.90;;;28.70;97.80;;;;;;5088682;28;20044;-64
2022/06/30 10:37:33;;;;;;;10.30;9.10;;;28.80;97.80;;;;;;5089995;28;20067;-64
2022/06/30 10:40:53;;;;;;;10.93;9.82;;;29.00;98.50;;;;;;5089463;28;20048;-64
2022/06/30 10:43:19;;;;;;;14.32;12.82;;;29.30;99.00;;;;;;5047044;28;20041;-65
2022/06/30 10:45:56;;;;;;;15.93;13.15;;;29.30;98.10;;;;;;5030240;28;20532;-64
2022/06/30 10:48:23;;;;;;;13.40;11.85;;;29.00;97.80;;;;;;4994423;28;20075;-64
2022/06/30 10:50:50;;;;;;;14.18;11.88;;;29.10;98.20;;;;;;5026798;28;20405;-64
2022/06/30 10:53:41;;;;;;;11.40;10.00;;;28.80;98.20;;;;;;5010429;28;20033;-64
2022/06/30 10:56:08;;;;;;;14.45;7.75;;;28.90;97.80;;;;;;5029374;28;20046;-65
2022/06/30 10:58:34;;;;;;;8.95;7.22;;;28.80;97.00;;;;;;5029839;28;20538;-64
2022/06/30 11:01:04;;;;;;;7.22;5.75;;;28.80;96.80;;;;;;5046778;28;20036;-64
2022/06/30 11:03:34;;;;;;;6.35;4.75;;;28.90;96.10;;;;;;5046974;28;20098;-65
2022/06/30 11:06:05;;;;;;;8.60;5.50;;;28.90;95.80;;;;;;5034911;28;20106;-65
2022/06/30 11:08:46;;;;;;;6.15;3.10;;;28.90;95.80;;;;;;5027637;28;20076;-64
2022/06/30 11:11:21;;;;;;;4.90;3.38;;;28.90;94.50;;;;;;5011543;28;20405;-64
2022/06/30 11:14:00;;;;;;;5.65;2.40;;;28.90;94.70;;;;;;5011625;28;20038;-65
2022/06/30 11:16:25;;;;;;;3.53;1.95;;;28.80;93.30;;;;;;5020320;28;20375;-64
2022/06/30 11:18:51;;;;;;;5.32;2.33;;;28.80;93.40;;;;;;5090780;28;20093;-65
2022/06/30 11:21:17;;;;;;;5.25;1.85;;;28.80;93.50;;;;;;5088945;28;20550;-64
2022/06/30 11:23:44;;;;;;;3.88;1.88;;;28.70;92.90;;;;;;5090284;28;20398;-64
2022/06/30 11:28:57;;;;;;;3.58;2.70;;;28.70;93.10;;;;;;5090318;28;20405;-64
2022/06/30 11:31:31;;;;;;;6.68;3.72;;;28.80;93.70;;;;;;5090265;28;20036;-65
2022/06/30 11:34:03;;;;;;;6.60;5.90;;;28.70;93.50;;;;;;5090404;28;20487;-65
2022/06/30 11:36:29;;;;;;;10.55;7.25;;;28.80;94.20;;;;;;5090232;28;20570;-64
2022/06/30 11:39:02;;;;;;;7.97;6.72;;;28.60;94.80;;;;;;5088876;28;20139;-64
2022/06/30 11:44:15;;;;;;;6.75;6.05;;;28.30;95.40;;;;;;5092084;28;20044;-64
2022/06/30 11:46:58;;;;;;;8.05;4.47;;;28.20;96.10;;;;;;5092662;28;20048;-64
2022/06/30 11:49:27;;;;;;;7.93;4.07;;;28.20;95.00;;;;;;5092106;28;20168;-64
2022/06/30 11:51:54;;;;;;;5.05;3.80;;;28.10;94.40;;;;;;5092487;28;20051;-64
2022/06/30 11:54:24;;;;;;;7.35;5.28;;;27.80;95.20;;;;;;5093430;28;20127;-64
2022/06/30 11:56:54;;;;;;;7.57;5.35;;;27.60;95.40;;;;;;5093685;28;20043;-64
2022/06/30 11:59:20;;;;;;;9.30;6.13;;;27.50;95.80;;;;;;5093438;28;20077;-64
2022/06/30 12:02:03;;;;;;;8.52;7.20;;;27.30;96.40;;;;;;5093358;28;20517;-65
2022/06/30 12:04:30;;;;;;;7.82;6.60;;;27.30;96.80;;;;;;5093467;28;20494;-64
2022/06/30 12:06:55;;;;;;;11.35;7.45;;;27.20;96.90;;;;;;5093548;28;20082;-64
2022/06/30 12:09:21;;;;;;;10.52;7.30;;;27.20;97.30;;;;;;5092190;28;20067;-65
2022/06/30 12:11:47;;;;;;;11.18;6.55;;;27.20;97.40;;;;;;5092070;28;21320;-64
2022/06/30 12:14:14;;;;;;;7.93;5.50;;;27.20;97.40;;;;;;5092229;28;20059;-65
2022/06/30 12:16:41;;;;;;;8.27;5.28;;;27.20;97.40;;;;;;5091443;28;20032;-64
2022/06/30 12:19:07;;;;;;;8.70;5.53;;;27.10;96.90;;;;;;5090553;28;20052;-65
2022/06/30 12:21:33;;;;;;;9.13;5.70;;;27.00;97.10;;;;;;5090960;28;20040;-64
2022/06/30 12:23:59;;;;;;;6.40;5.28;;;27.00;96.90;;;;;;5092423;28;20164;-65
2022/06/30 12:26:25;;;;;;;7.05;4.85;;;26.90;97.20;;;;;;5092518;28;20044;-65
2022/06/30 12:28:55;;;;;;;6.05;5.45;;;26.90;97.30;;;;;;5073932;28;20051;-64
2022/06/30 12:31:24;;;;;;;7.03;5.32;;;27.00;97.20;;;;;;5092511;28;20052;-64
2022/06/30 12:33:51;;;;;;;9.75;5.88;;;27.00;97.70;;;;;;5074288;28;20040;-64
2022/06/30 12:36:18;;;;;;;13.05;5.63;;;27.00;97.50;;;;;;5090927;28;20055;-65
2022/06/30 12:38:43;;;;;;;8.18;5.70;;;27.00;97.50;;;;;;5074323;28;20040;-64
2022/06/30 12:41:11;;;;;;;7.68;6.05;;;27.00;98.20;;;;;;5092309;28;20051;-64
2022/06/30 12:43:51;;;;;;;6.85;5.00;;;27.00;97.90;;;;;;5092323;28;20455;-65
2022/06/30 12:46:18;;;;;;;10.77;6.80;;;26.90;98.10;;;;;;5091050;28;20514;-64
2022/06/30 12:48:54;;;;;;;10.05;6.43;;;26.80;98.50;;;;;;5090978;28;20036;-64
2022/06/30 12:51:32;;;;;;;9.23;5.65;;;26.80;98.90;;;;;;5091830;28;20061;-64
2022/06/30 12:54:09;;;;;;;10.82;5.32;;;26.60;99.10;;;;;;5089687;28;20044;-64
2022/06/30 12:56:36;;;;;;;8.10;4.90;;;26.50;99.10;;;;;;5090900;28;20046;-64
2022/06/30 12:59:06;;;;;;;7.50;4.45;;;26.40;99.00;;;;;;5091286;28;20042;-65
2022/06/30 13:01:41;;;;;;;6.78;4.40;;;26.40;99.20;;;;;;5090894;28;20079;-65
2022/06/30 13:04:15;;;;;;;7.32;4.28;;;26.60;99.30;;;;;;5091186;28;20097;-65
2022/06/30 13:06:43;;;;;;;7.13;3.70;;;26.70;99.10;;;;;;5090775;28;20054;-64